Creech Saint Michael, United Kingdom
Current Conditions -  °F | °C
As of 11:50 PM on Tuesday 25 Nov 2014 (Local Time) from EGDY Reporting Station
Broken Clouds Broken Clouds  
Wind Chill: 41°   Ceiling: 700
Heat Index: 45°   Visibility: 6mi
Dew Point: 43°   Wind: 7mph
Humidity: 93%   Direction: 20°NNE
Pressure: 29.97"   Gusts: NA
Location:  51.02°N, 3.04°W
Report Text: EGDY 252350Z AUTO 02006KT 9999 BKN007/// BKN015/// 07/06 Q1015 REDZ
Loading
Personal Weather Stations






























Interactive Weather Map New forecast layout! Learn more

10-Day Weather Forecast

Advertisements
Track Severe Weather on mobile